createdAt,value
2018-11-07T00:02:18.955Z,97655.04
2018-11-07T00:04:49.419Z,97665.79
2018-11-07T00:07:19.768Z,97667.69
2018-11-07T00:09:50.475Z,97672.90
2018-11-07T00:12:21.185Z,97664.33
2018-11-07T00:14:51.560Z,97672.25
2018-11-07T00:17:22.273Z,97666.72
2018-11-07T00:19:52.613Z,97662.59
2018-11-07T00:22:23.209Z,97663.45
2018-11-07T00:24:54.089Z,97661.91
2018-11-07T00:27:24.521Z,97665.38
2018-11-07T00:29:55.037Z,97662.36
2018-11-07T00:32:25.390Z,97663.16
2018-11-07T00:34:56.015Z,97666.48
2018-11-07T00:37:26.513Z,97673.43
2018-11-07T00:39:57.213Z,97682.59
2018-11-07T00:42:34.045Z,97681.59
2018-11-07T00:45:04.654Z,97679.56
2018-11-07T00:47:35.169Z,97682.83
2018-11-07T00:50:08.139Z,97678.30
2018-11-07T00:52:38.506Z,97676.23
2018-11-07T00:55:09.308Z,97686.74
2018-11-07T00:57:39.973Z,97670.64
2018-11-07T01:00:14.058Z,97671.48
2018-11-07T01:02:45.631Z,97665.46
2018-11-07T01:05:16.024Z,97672.53
2018-11-07T01:07:47.544Z,97673.56
2018-11-07T01:10:17.797Z,97680.59
2018-11-07T01:12:48.261Z,97677.11
2018-11-07T01:15:18.845Z,97673.69
2018-11-07T01:17:49.190Z,97671.28
2018-11-07T01:20:19.851Z,97674.84
2018-11-07T01:22:50.542Z,97667.16
2018-11-07T01:25:21.175Z,97671.81
2018-11-07T01:27:57.854Z,97664.16
2018-11-07T01:30:28.213Z,97661.66
2018-11-07T01:32:58.863Z,97665.23
2018-11-07T01:35:29.275Z,97664.61
2018-11-07T01:37:59.712Z,97666.91
2018-11-07T01:40:30.086Z,97655.46
2018-11-07T01:43:00.550Z,97668.08
2018-11-07T01:45:31.142Z,97669.73
2018-11-07T01:48:01.579Z,97672.91
2018-11-07T01:50:32.274Z,97666.23
2018-11-07T01:53:02.700Z,97662.58
2018-11-07T01:55:33.252Z,97658.27
2018-11-07T01:58:03.765Z,97662.39
2018-11-07T02:00:34.230Z,97665.56
2018-11-07T02:03:04.720Z,97662.84
2018-11-07T02:05:35.175Z,97655.53
2018-11-07T02:08:05.976Z,97659.52
2018-11-07T02:10:36.460Z,97652.58
2018-11-07T02:13:07.048Z,97656.16
2018-11-07T02:15:37.353Z,97660.14
2018-11-07T02:18:08.006Z,97661.53
2018-11-07T02:20:38.594Z,97669.86
2018-11-07T02:23:09.040Z,97669.86
2018-11-07T02:25:39.651Z,97667.99
2018-11-07T02:28:10.056Z,97671.31
2018-11-07T02:30:40.728Z,97672.12
2018-11-07T02:33:11.342Z,97673.05
2018-11-07T02:35:41.756Z,97674.16
2018-11-07T02:38:12.172Z,97678.41
2018-11-07T02:40:42.686Z,97674.61
2018-11-07T02:43:13.373Z,97663.83
2018-11-07T02:45:43.970Z,97671.34
2018-11-07T02:48:14.778Z,97681.01
2018-11-07T02:50:45.580Z,97680.73
2018-11-07T02:53:15.977Z,97682.47
2018-11-07T02:55:46.328Z,97673.50
2018-11-07T02:58:16.915Z,97674.28
2018-11-07T03:00:47.455Z,97677.82
2018-11-07T03:03:17.872Z,97677.45
2018-11-07T03:05:48.223Z,97674.02
2018-11-07T03:08:18.798Z,97666.03
2018-11-07T03:10:49.281Z,97675.27
2018-11-07T03:13:19.769Z,97668.41
2018-11-07T03:15:50.304Z,97669.67
2018-11-07T03:18:20.670Z,97667.53
2018-11-07T03:20:51.453Z,97662.09
2018-11-07T03:23:22.127Z,97655.84
2018-11-07T03:25:52.663Z,97649.84
2018-11-07T03:28:23.119Z,97645.02
2018-11-07T03:30:53.508Z,97651.16
2018-11-07T03:33:24.036Z,97647.73
2018-11-07T03:35:54.461Z,97649.05
2018-11-07T03:38:24.952Z,97659.98
2018-11-07T03:40:55.455Z,97659.64
2018-11-07T03:43:25.730Z,97670.49
2018-11-07T03:45:58.759Z,97673.52
2018-11-07T03:48:31.551Z,97674.02
2018-11-07T03:51:02.176Z,97668.42
2018-11-07T03:53:32.678Z,97670.12
2018-11-07T03:56:03.174Z,97680.12
2018-11-07T03:58:33.819Z,97681.51
2018-11-07T04:01:04.549Z,97681.45
2018-11-07T04:03:35.219Z,97679.69
2018-11-07T04:06:06.202Z,97676.76
2018-11-07T04:08:36.477Z,97677.73
2018-11-07T04:11:06.893Z,97680.59
2018-11-07T04:13:37.371Z,97685.96
2018-11-07T04:16:07.867Z,97681.39
2018-11-07T04:18:38.779Z,97677.94
2018-11-07T04:21:09.437Z,97676.18
2018-11-07T04:23:40.025Z,97677.91
2018-11-07T04:26:10.479Z,97680.52
2018-11-07T04:28:41.011Z,97679.38
2018-11-07T04:31:11.674Z,97672.87
2018-11-07T04:33:42.156Z,97673.19
2018-11-07T04:36:12.509Z,97673.98
2018-11-07T04:38:43.059Z,97670.35
2018-11-07T04:41:13.461Z,97675.98
2018-11-07T04:43:43.859Z,97674.07
2018-11-07T04:46:14.491Z,97680.55
2018-11-07T04:48:45.140Z,97677.35
2018-11-07T04:51:16.028Z,97680.90
2018-11-07T04:53:46.573Z,97681.83
2018-11-07T04:56:16.901Z,97681.34
2018-11-07T04:58:47.231Z,97695.45
2018-11-07T05:01:17.802Z,97703.12
2018-11-07T05:03:48.159Z,97704.77
2018-11-07T05:06:18.643Z,97700.88
2018-11-07T05:08:49.399Z,97705.03
2018-11-07T05:11:19.622Z,97705.95
2018-11-07T05:13:50.205Z,97712.36
2018-11-07T05:16:20.856Z,97718.37
2018-11-07T05:18:51.278Z,97707.91
2018-11-07T05:21:21.998Z,97706.34
2018-11-07T05:23:52.466Z,97711.64
2018-11-07T05:26:23.314Z,97708.59
2018-11-07T05:28:53.937Z,97711.36
2018-11-07T05:31:24.416Z,97708.05
2018-11-07T05:33:54.901Z,97704.80
2018-11-07T05:36:25.550Z,97709.72
2018-11-07T05:38:57.013Z,97717.55
2018-11-07T05:41:27.692Z,97712.83
2018-11-07T05:43:58.134Z,97705.48
2018-11-07T05:46:28.540Z,97719.63
2018-11-07T05:48:58.870Z,97720.19
2018-11-07T05:51:29.377Z,97723.64
2018-11-07T05:53:59.720Z,97722.79
2018-11-07T05:56:30.330Z,97724.11
2018-11-07T05:59:02.828Z,97731.38
2018-11-07T06:01:33.438Z,97723.52
2018-11-07T06:04:04.212Z,97722.23
2018-11-07T06:06:34.902Z,97719.56
2018-11-07T06:09:07.130Z,97722.91
2018-11-07T06:11:37.964Z,97724.87
2018-11-07T06:14:08.714Z,97726.19
2018-11-07T06:16:39.192Z,97732.11
2018-11-07T06:19:09.806Z,97733.54
2018-11-07T06:21:40.362Z,97729.30
2018-11-07T06:24:10.768Z,97734.19
2018-11-07T06:26:41.106Z,97739.02
2018-11-07T06:29:11.657Z,97744.20
2018-11-07T06:31:42.168Z,97730.59
2018-11-07T06:34:12.653Z,97735.72
2018-11-07T06:36:43.354Z,97739.52
2018-11-07T06:39:13.836Z,97741.19
2018-11-07T06:41:47.282Z,97746.64
2018-11-07T06:44:17.898Z,97752.59
2018-11-07T06:46:48.362Z,97747.38
2018-11-07T06:49:18.745Z,97747.66
2018-11-07T06:51:49.310Z,97756.45
2018-11-07T06:54:19.952Z,97756.14
2018-11-07T06:56:50.753Z,97765.70
2018-11-07T06:59:21.230Z,97756.78
2018-11-07T07:01:52.242Z,97765.58
2018-11-07T07:04:22.696Z,97765.92
2018-11-07T07:06:53.322Z,97765.17
2018-11-07T07:09:23.660Z,97764.72
2018-11-07T07:11:54.197Z,97759.60
2018-11-07T07:14:24.872Z,97756.32
2018-11-07T07:16:55.298Z,97743.60
2018-11-07T07:19:25.929Z,97743.77
2018-11-07T07:21:56.323Z,97751.00
2018-11-07T07:24:26.768Z,97753.88
2018-11-07T07:26:57.235Z,97758.89
2018-11-07T07:29:27.568Z,97756.02
2018-11-07T07:31:57.913Z,97754.89
2018-11-07T07:34:28.322Z,97757.11
2018-11-07T07:36:58.824Z,97754.88
2018-11-07T07:39:29.356Z,97750.98
2018-11-07T07:41:59.688Z,97737.81
2018-11-07T07:44:29.994Z,97730.13
2018-11-07T07:47:00.447Z,97736.39
2018-11-07T07:49:31.064Z,97746.71
2018-11-07T07:52:01.599Z,97746.66
2018-11-07T07:54:32.137Z,97742.16
2018-11-07T07:57:02.748Z,97734.74
2018-11-07T07:59:33.169Z,97739.42
2018-11-07T08:02:03.668Z,97735.29
2018-11-07T08:04:34.202Z,97741.48
2018-11-07T08:07:04.686Z,97747.84
2018-11-07T08:09:35.184Z,97756.48
2018-11-07T08:12:05.824Z,97769.42
2018-11-07T08:14:36.195Z,97775.80
2018-11-07T08:17:06.890Z,97775.22
2018-11-07T08:19:37.404Z,97773.25
2018-11-07T08:22:07.830Z,97769.72
2018-11-07T08:24:38.116Z,97764.61
2018-11-07T08:27:08.591Z,97756.25
2018-11-07T08:29:38.943Z,97759.14
2018-11-07T08:32:09.337Z,97771.81
2018-11-07T08:34:39.668Z,97773.09
2018-11-07T08:37:10.126Z,97771.78
2018-11-07T08:39:40.586Z,97779.02
2018-11-07T08:42:10.996Z,97775.18
2018-11-07T08:44:41.320Z,97778.20
2018-11-07T08:47:11.835Z,97771.25
2018-11-07T08:49:42.313Z,97755.07
2018-11-07T08:52:12.789Z,97747.94
2018-11-07T08:54:43.491Z,97750.73
2018-11-07T08:57:13.836Z,97749.53
2018-11-07T08:59:44.516Z,97752.19
2018-11-07T09:02:15.095Z,97750.08
2018-11-07T09:04:45.477Z,97755.56
2018-11-07T09:07:15.931Z,97760.09
2018-11-07T09:09:46.227Z,97758.72
2018-11-07T09:12:16.744Z,97750.16
2018-11-07T09:14:46.869Z,97751.02
2018-11-07T09:17:17.256Z,97749.52
2018-11-07T09:19:47.506Z,97753.49
2018-11-07T09:22:18.454Z,97756.84
2018-11-07T09:24:49.680Z,97749.88
2018-11-07T09:27:20.141Z,97744.10
2018-11-07T09:29:50.845Z,97738.77
2018-11-07T09:32:21.242Z,97737.09
2018-11-07T09:34:51.497Z,97744.09
2018-11-07T09:37:22.138Z,97731.36
2018-11-07T09:39:52.573Z,97720.64
2018-11-07T09:42:23.203Z,97720.48
2018-11-07T09:44:53.498Z,97722.05
2018-11-07T09:47:23.766Z,97721.84
2018-11-07T09:49:53.941Z,97714.70
2018-11-07T09:52:24.305Z,97711.27
2018-11-07T09:54:54.697Z,97706.76
2018-11-07T09:57:24.981Z,97705.30
2018-11-07T09:59:55.126Z,97699.60
2018-11-07T10:02:25.617Z,97691.64
2018-11-07T10:04:56.141Z,97682.31
2018-11-07T10:07:26.687Z,97685.92
2018-11-07T10:09:57.003Z,97691.14
2018-11-07T10:12:27.456Z,97695.27
2018-11-07T10:14:57.683Z,97697.30
2018-11-07T10:17:28.097Z,97695.72
2018-11-07T10:19:58.485Z,97689.02
2018-11-07T10:22:28.659Z,97681.05
2018-11-07T10:24:59.054Z,97682.92
2018-11-07T10:27:29.656Z,97690.58
2018-11-07T10:29:59.818Z,97670.94
2018-11-07T10:32:29.881Z,97678.91
2018-11-07T10:35:00.269Z,97676.13
2018-11-07T10:37:32.465Z,97673.43
2018-11-07T10:40:00.910Z,97660.11
2018-11-07T10:42:31.219Z,97663.17
2018-11-07T10:45:01.461Z,97664.62
2018-11-07T10:47:31.860Z,97663.48
2018-11-07T10:50:02.325Z,97661.42
2018-11-07T10:52:33.260Z,97658.56
2018-11-07T10:55:03.951Z,97664.43
2018-11-07T10:57:34.501Z,97660.53
2018-11-07T11:00:06.102Z,97664.62
2018-11-07T11:02:41.734Z,97658.02
2018-11-07T11:05:12.202Z,97658.65
2018-11-07T11:07:42.985Z,97652.86
2018-11-07T11:10:13.923Z,97644.02
2018-11-07T11:12:45.133Z,97645.54
2018-11-07T11:15:15.792Z,97645.66
2018-11-07T11:17:46.905Z,97636.02
2018-11-07T11:20:17.262Z,97635.64
2018-11-07T11:22:47.628Z,97638.81
2018-11-07T11:25:18.367Z,97638.67
2018-11-07T11:27:49.048Z,97651.01
2018-11-07T11:30:19.752Z,97659.87
2018-11-07T11:32:52.591Z,97661.77
2018-11-07T11:35:23.044Z,97662.56
2018-11-07T11:37:53.544Z,97664.10
2018-11-07T11:40:23.823Z,97660.94
2018-11-07T11:42:54.614Z,97666.05
2018-11-07T11:45:25.127Z,97662.31
2018-11-07T11:47:55.583Z,97662.30
2018-11-07T11:50:26.017Z,97648.75
2018-11-07T11:52:56.590Z,97639.52
2018-11-07T11:55:27.024Z,97637.17
2018-11-07T11:57:57.739Z,97628.94
2018-11-07T12:00:28.288Z,97631.27
2018-11-07T12:02:58.812Z,97620.33
2018-11-07T12:05:29.747Z,97625.16
2018-11-07T12:08:00.393Z,97621.41
2018-11-07T12:10:31.072Z,97636.78
2018-11-07T12:13:01.731Z,97635.59
2018-11-07T12:15:32.488Z,97635.51
2018-11-07T12:18:03.032Z,97630.41
2018-11-07T12:20:33.408Z,97629.67
2018-11-07T12:23:04.182Z,97621.71
2018-11-07T12:25:34.804Z,97620.38
2018-11-07T12:28:05.795Z,97621.24
2018-11-07T12:30:36.312Z,97622.73
2018-11-07T12:33:06.784Z,97617.04
2018-11-07T12:35:37.499Z,97621.72
2018-11-07T12:38:08.218Z,97618.27
2018-11-07T12:40:38.637Z,97608.90
2018-11-07T12:43:09.309Z,97610.95
2018-11-07T12:45:40.117Z,97619.56
2018-11-07T12:48:10.699Z,97624.27
2018-11-07T12:50:41.415Z,97615.39
2018-11-07T12:53:12.821Z,97615.66
2018-11-07T12:55:43.494Z,97613.42
2018-11-07T12:58:14.190Z,97614.53
2018-11-07T13:00:44.707Z,97612.68
2018-11-07T13:03:15.403Z,97611.45
2018-11-07T13:05:46.295Z,97620.48
2018-11-07T13:08:16.809Z,97614.69
2018-11-07T13:10:47.415Z,97623.66
2018-11-07T13:13:18.022Z,97637.45
2018-11-07T13:15:49.554Z,97621.49
2018-11-07T13:18:20.567Z,97624.03
2018-11-07T13:20:50.927Z,97616.03
2018-11-07T13:23:21.605Z,97617.73
2018-11-07T13:25:52.617Z,97619.80
2018-11-07T13:28:24.925Z,97625.30
2018-11-07T13:30:55.697Z,97631.79
2018-11-07T13:33:26.145Z,97628.13
2018-11-07T13:35:56.559Z,97629.33
2018-11-07T13:38:27.597Z,97628.55
2018-11-07T13:40:57.804Z,97616.70
2018-11-07T13:43:28.385Z,97622.66
2018-11-07T13:45:58.917Z,97627.44
2018-11-07T13:48:29.803Z,97626.29
2018-11-07T13:51:00.453Z,97629.27
2018-11-07T13:53:30.891Z,97623.70
2018-11-07T13:56:01.477Z,97628.75
2018-11-07T13:58:32.117Z,97620.30
2018-11-07T14:01:02.691Z,97618.48
2018-11-07T14:03:33.555Z,97619.58
2018-11-07T14:06:04.162Z,97617.90
2018-11-07T14:08:34.587Z,97626.30
2018-11-07T14:11:05.379Z,97622.11
2018-11-07T14:13:35.819Z,97627.17
2018-11-07T14:16:06.533Z,97631.86
2018-11-07T14:18:36.903Z,97627.35
2018-11-07T14:21:07.441Z,97619.24
2018-11-07T14:23:38.195Z,97631.98
2018-11-07T14:26:09.051Z,97637.20
2018-11-07T14:28:39.636Z,97637.14
2018-11-07T14:31:10.192Z,97636.11
2018-11-07T14:33:41.210Z,97636.58
2018-11-07T14:36:12.422Z,97630.71
2018-11-07T14:38:43.369Z,97633.44
2018-11-07T14:41:13.781Z,97630.48
2018-11-07T14:43:44.474Z,97630.25
2018-11-07T14:46:14.934Z,97629.58
2018-11-07T14:48:45.593Z,97636.72
2018-11-07T14:51:16.552Z,97640.66
2018-11-07T14:53:47.303Z,97646.55
2018-11-07T14:56:17.967Z,97642.39
2018-11-07T14:58:48.641Z,97645.02
2018-11-07T15:01:19.124Z,97640.47
2018-11-07T15:03:49.690Z,97640.34
2018-11-07T15:06:20.245Z,97641.00
2018-11-07T15:08:51.025Z,97650.31
2018-11-07T15:11:21.664Z,97659.88
2018-11-07T15:13:52.322Z,97672.40
2018-11-07T15:16:22.975Z,97663.73
2018-11-07T15:18:53.500Z,97674.23
2018-11-07T15:21:24.209Z,97682.04
2018-11-07T15:23:55.074Z,97682.86
2018-11-07T15:26:25.812Z,97690.61
2018-11-07T15:28:56.501Z,97696.55
2018-11-07T15:31:27.241Z,97703.09
2018-11-07T15:33:57.706Z,97706.97
2018-11-07T15:36:28.293Z,97710.48
2018-11-07T15:38:59.280Z,97712.11
2018-11-07T15:41:31.272Z,97716.13
2018-11-07T15:44:01.799Z,97721.87
2018-11-07T15:46:32.362Z,97730.19
2018-11-07T15:49:02.817Z,97734.11
2018-11-07T15:51:37.495Z,97737.49
2018-11-07T15:54:08.239Z,97733.32
2018-11-07T15:56:38.836Z,97729.18
2018-11-07T15:59:09.192Z,97732.82
2018-11-07T16:01:39.486Z,97740.06
2018-11-07T16:04:10.278Z,97745.41
2018-11-07T16:06:40.903Z,97745.16
2018-11-07T16:09:11.465Z,97753.81
2018-11-07T16:11:42.182Z,97758.36
2018-11-07T16:14:17.264Z,97762.28
2018-11-07T16:16:48.674Z,97756.91
2018-11-07T16:19:19.431Z,97763.93
2018-11-07T16:21:49.897Z,97765.19
2018-11-07T16:24:20.630Z,97763.83
2018-11-07T16:26:51.004Z,97764.72
2018-11-07T16:29:21.754Z,97767.83
2018-11-07T16:31:52.304Z,97767.71
2018-11-07T16:34:22.910Z,97775.19
2018-11-07T16:36:53.399Z,97781.11
2018-11-07T16:39:24.017Z,97787.48
2018-11-07T16:41:54.713Z,97795.61
2018-11-07T16:44:25.144Z,97808.93
2018-11-07T16:46:57.513Z,97808.79
2018-11-07T16:49:27.900Z,97809.16
2018-11-07T16:51:58.429Z,97815.44
2018-11-07T16:54:28.958Z,97822.64
2018-11-07T16:56:59.421Z,97822.83
2018-11-07T16:59:29.820Z,97827.03
2018-11-07T17:02:00.238Z,97834.88
2018-11-07T17:04:30.734Z,97832.98
2018-11-07T17:07:01.279Z,97842.58
2018-11-07T17:09:31.775Z,97841.44
2018-11-07T17:12:02.452Z,97852.68
2018-11-07T17:14:32.882Z,97855.36
2018-11-07T17:17:14.511Z,97849.98
2018-11-07T17:19:45.426Z,97858.75
2018-11-07T17:22:16.203Z,97858.75
2018-11-07T17:24:46.614Z,97873.64
2018-11-07T17:27:17.015Z,97882.97
2018-11-07T17:29:47.489Z,97880.61
2018-11-07T17:32:18.225Z,97881.58
2018-11-07T17:34:48.767Z,97881.66
2018-11-07T17:37:19.519Z,97878.66
2018-11-07T17:39:49.904Z,97878.48
2018-11-07T17:42:20.875Z,97883.20
2018-11-07T17:44:51.446Z,97889.96
2018-11-07T17:47:22.169Z,97892.23
2018-11-07T17:49:52.580Z,97894.19
2018-11-07T17:52:23.363Z,97900.33
2018-11-07T17:54:53.939Z,97904.64
2018-11-07T17:57:24.684Z,97907.56
2018-11-07T17:59:55.336Z,97915.13
2018-11-07T18:02:25.751Z,97922.55
2018-11-07T18:04:59.515Z,97925.32
2018-11-07T18:07:30.093Z,97926.66
2018-11-07T18:10:00.669Z,97923.53
2018-11-07T18:12:32.144Z,97927.96
2018-11-07T18:15:02.931Z,97933.54
2018-11-07T18:17:33.526Z,97931.39
2018-11-07T18:20:04.257Z,97930.36
2018-11-07T18:22:34.845Z,97928.34
2018-11-07T18:25:05.379Z,97936.58
2018-11-07T18:27:36.772Z,97939.61
2018-11-07T18:30:08.673Z,97943.17
2018-11-07T18:32:39.666Z,97940.38
2018-11-07T18:35:11.287Z,97949.21
2018-11-07T18:37:42.049Z,97944.92
2018-11-07T18:40:14.022Z,97947.11
2018-11-07T18:42:44.518Z,97944.20
2018-11-07T18:45:15.410Z,97944.91
2018-11-07T18:47:46.629Z,97942.72
2018-11-07T18:50:18.712Z,97946.61
2018-11-07T18:52:49.393Z,97948.75
2018-11-07T18:55:20.079Z,97945.96
2018-11-07T18:57:50.453Z,97955.03
2018-11-07T19:00:21.492Z,97959.41
2018-11-07T19:02:52.576Z,97958.45
2018-11-07T19:05:23.355Z,97965.16
2018-11-07T19:07:53.866Z,97972.68
2018-11-07T19:10:24.516Z,97977.02
2018-11-07T19:12:55.171Z,97980.13
2018-11-07T19:15:25.807Z,97978.88
2018-11-07T19:17:56.858Z,97984.58
2018-11-07T19:23:18.463Z,97986.39
2018-11-07T19:25:48.997Z,97988.13
2018-11-07T19:28:19.796Z,97988.02
2018-11-07T19:30:50.480Z,97991.30
2018-11-07T19:33:21.341Z,97990.18
2018-11-07T19:35:52.003Z,98000.91
2018-11-07T19:38:22.845Z,98001.77
2018-11-07T19:40:53.588Z,97996.58
2018-11-07T19:43:24.099Z,98015.61
2018-11-07T19:45:54.736Z,98016.58
2018-11-07T19:48:25.202Z,98022.80
2018-11-07T19:50:56.086Z,98028.87
2018-11-07T19:53:26.802Z,98017.25
2018-11-07T19:55:57.346Z,98025.42
2018-11-07T19:58:28.044Z,98024.72
2018-11-07T20:00:58.883Z,98022.21
2018-11-07T20:03:29.269Z,98026.14
2018-11-07T20:05:59.768Z,98034.98
2018-11-07T20:08:30.421Z,98033.02
2018-11-07T20:11:00.946Z,98040.86
2018-11-07T20:13:31.333Z,98048.44
2018-11-07T20:16:01.928Z,98046.91
2018-11-07T20:18:32.595Z,98049.94
2018-11-07T20:21:02.991Z,98053.52
2018-11-07T20:23:33.594Z,98050.59
2018-11-07T20:26:04.030Z,98054.14
2018-11-07T20:28:34.513Z,98051.38
2018-11-07T20:31:05.246Z,98063.74
2018-11-07T20:33:35.675Z,98069.02
2018-11-07T20:36:06.525Z,98075.92
2018-11-07T20:38:36.689Z,98086.28
2018-11-07T20:41:07.182Z,98089.09
2018-11-07T20:43:37.599Z,98093.64
2018-11-07T20:46:08.289Z,98098.20
2018-11-07T20:48:38.794Z,98102.50
2018-11-07T20:51:09.268Z,98096.21
2018-11-07T20:53:39.857Z,98102.30
2018-11-07T20:56:10.325Z,98106.62
2018-11-07T20:58:40.805Z,98101.89
2018-11-07T21:01:11.212Z,98104.41
2018-11-07T21:03:41.752Z,98111.82
2018-11-07T21:06:12.161Z,98117.14
2018-11-07T21:08:42.613Z,98117.96
2018-11-07T21:11:13.072Z,98118.63
2018-11-07T21:13:43.453Z,98116.11
2018-11-07T21:16:13.989Z,98109.99
2018-11-07T21:18:44.713Z,98116.05
2018-11-07T21:21:15.207Z,98129.45
2018-11-07T21:23:45.609Z,98133.54
2018-11-07T21:26:16.115Z,98131.89
2018-11-07T21:28:46.649Z,98135.97
2018-11-07T21:31:16.953Z,98138.11
2018-11-07T21:33:47.290Z,98146.03
2018-11-07T21:36:17.748Z,98146.64
2018-11-07T21:38:48.123Z,98150.49
2018-11-07T21:41:18.453Z,98138.86
2018-11-07T21:43:48.929Z,98145.81
2018-11-07T21:46:19.478Z,98151.13
2018-11-07T21:48:49.881Z,98155.44
2018-11-07T21:51:20.278Z,98164.02
2018-11-07T21:53:50.846Z,98168.44
2018-11-07T21:56:21.348Z,98171.95
2018-11-07T21:58:51.858Z,98172.42
2018-11-07T22:01:22.262Z,98176.24
2018-11-07T22:03:52.671Z,98180.09
2018-11-07T22:06:22.972Z,98176.11
2018-11-07T22:08:53.415Z,98176.39
2018-11-07T22:11:24.510Z,98178.12
2018-11-07T22:13:55.103Z,98179.94
2018-11-07T22:16:25.698Z,98179.98
2018-11-07T22:18:56.219Z,98176.94
2018-11-07T22:21:26.831Z,98173.39
2018-11-07T22:23:57.733Z,98188.41
2018-11-07T22:26:28.666Z,98198.28
2018-11-07T22:29:06.098Z,98199.05
2018-11-07T22:31:36.924Z,98197.73
2018-11-07T22:34:07.729Z,98208.48
2018-11-07T22:36:38.599Z,98210.16
2018-11-07T22:39:12.410Z,98203.20
2018-11-07T22:41:44.041Z,98198.34
2018-11-07T22:44:14.528Z,98193.42
2018-11-07T22:46:44.916Z,98199.80
2018-11-07T22:49:15.940Z,98210.08
2018-11-07T22:51:46.536Z,98213.08
2018-11-07T22:54:17.186Z,98202.77
2018-11-07T22:56:47.543Z,98210.52
2018-11-07T22:59:18.609Z,98211.80
2018-11-07T23:01:49.599Z,98229.04
2018-11-07T23:04:20.360Z,98233.02
2018-11-07T23:06:50.811Z,98239.21
2018-11-07T23:09:21.321Z,98231.54
2018-11-07T23:11:51.870Z,98234.61
2018-11-07T23:14:22.616Z,98238.58
2018-11-07T23:16:53.113Z,98240.37
2018-11-07T23:19:23.616Z,98246.95
2018-11-07T23:21:54.199Z,98253.30
2018-11-07T23:24:24.415Z,98250.67
2018-11-07T23:26:54.970Z,98250.75
2018-11-07T23:29:25.555Z,98255.60
2018-11-07T23:31:56.180Z,98241.98
2018-11-07T23:34:26.671Z,98246.84
2018-11-07T23:36:57.077Z,98253.78
2018-11-07T23:39:27.455Z,98261.63
2018-11-07T23:41:57.986Z,98263.83
2018-11-07T23:44:28.436Z,98260.84
2018-11-07T23:46:59.001Z,98266.09
2018-11-07T23:49:29.682Z,98269.98
2018-11-07T23:52:00.263Z,98269.89
2018-11-07T23:54:30.696Z,98267.28
2018-11-07T23:57:01.042Z,98271.94
2018-11-07T23:59:31.451Z,98270.53
